Time;durP1;ratioP1;P1;durP2;ratioP2;P2;SDS_P1;SDS_P2;PMS_P1;PMS_P2;Temp;Humidity;BMP_temperature;BMP_pressure;BME280_temperature;BME280_humidity;BME280_pressure;Samples;Min_cycle;Max_cycle;Signal;HPM_P1;HPM_P2
2022/12/28 00:01:41;;;;;;;10.77;7.32;;;;;;;7.73;57.61;94841.50;4990818;28;20046;-73
2022/12/28 00:04:06;;;;;;;8.20;7.25;;;;;;;7.78;57.60;94839.59;4991443;28;20565;-75
2022/12/28 00:06:33;;;;;;;9.40;7.40;;;;;;;7.85;57.35;94840.13;4990977;28;20033;-75
2022/12/28 00:08:59;;;;;;;8.57;6.47;;;;;;;7.88;56.99;94849.38;4991954;28;20046;-74
2022/12/28 00:11:26;;;;;;;8.07;6.63;;;;;;;7.76;57.37;94835.66;4992986;28;20504;-75
2022/12/28 00:13:51;;;;;;;8.60;6.53;;;;;;;7.80;57.04;94847.28;5005694;28;20069;-72
2022/12/28 00:16:28;;;;;;;7.60;6.45;;;;;;;7.95;56.34;94847.25;4992270;28;20125;-74
2022/12/28 00:18:55;;;;;;;7.57;6.78;;;;;;;7.97;56.48;94851.19;4988739;28;20029;-75
2022/12/28 00:21:22;;;;;;;7.07;5.95;;;;;;;7.97;56.05;94845.13;4992910;28;20560;-74
2022/12/28 00:23:49;;;;;;;9.07;7.32;;;;;;;8.05;55.53;94855.94;4990163;28;20037;-72
2022/12/28 00:26:15;;;;;;;8.10;7.22;;;;;;;7.98;55.82;94849.34;4991802;28;20041;-75
2022/12/28 00:28:40;;;;;;;7.80;6.63;;;;;;;7.84;55.74;94845.69;4991404;28;20042;-72
2022/12/28 00:31:06;;;;;;;7.80;6.70;;;;;;;7.80;56.16;94857.88;4989852;28;20030;-75
2022/12/28 00:33:32;;;;;;;7.88;6.72;;;;;;;7.75;55.86;94839.38;5007239;28;20444;-74
2022/12/28 00:35:59;;;;;;;7.43;6.65;;;;;;;7.93;55.76;94870.53;4987355;28;20503;-73
2022/12/28 00:38:25;;;;;;;8.75;6.60;;;;;;;7.85;55.33;94855.22;4991439;28;20108;-74
2022/12/28 00:40:51;;;;;;;7.95;6.97;;;;;;;7.76;55.83;94868.22;4990931;28;20118;-73
2022/12/28 00:43:16;;;;;;;8.40;7.18;;;;;;;7.95;55.38;94871.09;4992257;28;20074;-73
2022/12/28 00:45:46;;;;;;;6.75;6.05;;;;;;;7.95;55.75;94884.31;4991294;28;20531;-74
2022/12/28 00:48:12;;;;;;;9.45;6.28;;;;;;;7.73;56.27;94870.63;4989720;28;20037;-74
2022/12/28 00:50:37;;;;;;;8.48;7.00;;;;;;;7.78;56.49;94876.69;5004554;28;20046;-73
2022/12/28 00:53:02;;;;;;;7.90;6.80;;;;;;;7.87;55.91;94877.75;4990866;28;20038;-73
2022/12/28 00:55:28;;;;;;;7.35;6.63;;;;;;;7.82;56.20;94876.97;4990309;28;20948;-74
2022/12/28 00:57:53;;;;;;;9.45;6.43;;;;;;;7.81;55.84;94875.38;4992385;28;20029;-72
2022/12/28 01:00:19;;;;;;;8.68;6.70;;;;;;;7.60;56.46;94890.47;4985953;28;20030;-72
2022/12/28 01:02:44;;;;;;;8.18;6.88;;;;;;;7.57;56.62;94870.63;4992034;28;20131;-72
2022/12/28 01:05:09;;;;;;;8.27;6.78;;;;;;;7.64;56.74;94887.03;4990810;28;20033;-72
2022/12/28 01:07:35;;;;;;;8.27;7.13;;;;;;;7.67;57.04;94888.34;4991901;28;20033;-73
2022/12/28 01:10:00;;;;;;;11.38;7.88;;;;;;;7.48;57.84;94877.53;4990261;28;20033;-72
2022/12/28 01:12:27;;;;;;;9.38;7.85;;;;;;;7.51;57.69;94882.28;4988240;28;20034;-73
2022/12/28 01:14:53;;;;;;;9.23;7.50;;;;;;;7.55;57.28;94878.03;4990521;28;20050;-73
2022/12/28 01:17:18;;;;;;;8.90;7.35;;;;;;;7.38;57.22;94882.84;4987177;28;20044;-72
2022/12/28 01:19:43;;;;;;;9.18;7.38;;;;;;;7.34;58.18;94878.34;4986546;28;20077;-72
2022/12/28 01:22:09;;;;;;;9.43;7.45;;;;;;;7.36;57.54;94853.19;4987580;28;20037;-72
2022/12/28 01:24:34;;;;;;;14.05;8.60;;;;;;;7.57;57.33;94872.50;4988439;28;20073;-72
2022/12/28 01:27:00;;;;;;;9.57;7.65;;;;;;;7.73;56.39;94882.78;4989863;28;20119;-75
2022/12/28 01:29:25;;;;;;;9.68;7.55;;;;;;;7.75;55.73;94871.13;4990020;28;20461;-73
2022/12/28 01:31:50;;;;;;;8.77;6.75;;;;;;;7.77;55.57;94879.63;4988565;28;20046;-72
2022/12/28 01:34:16;;;;;;;8.63;6.85;;;;;;;7.67;55.55;94865.31;4990646;28;20073;-72
2022/12/28 01:36:41;;;;;;;9.02;6.85;;;;;;;7.70;55.39;94874.56;4990951;28;20021;-71
2022/12/28 01:39:07;;;;;;;9.00;7.60;;;;;;;7.67;54.80;94859.22;4989896;28;20044;-72
2022/12/28 01:41:36;;;;;;;9.63;6.75;;;;;;;7.68;55.10;94856.28;5005138;28;20026;-71
2022/12/28 01:44:01;;;;;;;9.50;7.65;;;;;;;7.67;54.69;94869.81;4988618;28;20129;-73
2022/12/28 01:46:35;;;;;;;8.70;7.13;;;;;;;7.61;54.76;94860.28;4988509;28;20044;-74
2022/12/28 01:49:05;;;;;;;9.43;7.45;;;;;;;7.63;54.87;94869.53;4991620;28;20164;-74
2022/12/28 01:51:55;;;;;;;10.38;8.07;;;;;;;7.64;54.76;94860.53;4988706;28;20038;-74
2022/12/28 01:54:23;;;;;;;8.60;7.43;;;;;;;7.82;54.55;94869.00;4969809;28;20132;-74
2022/12/28 01:56:50;;;;;;;13.10;7.28;;;;;;;7.75;54.89;94860.53;4970030;28;20035;-74
2022/12/28 01:59:18;;;;;;;11.10;8.85;;;;;;;7.69;54.46;94865.03;4970189;28;20031;-76
2022/12/28 02:01:43;;;;;;;11.25;9.13;;;;;;;7.58;54.75;94860.84;4978374;28;20038;-74
2022/12/28 02:04:09;;;;;;;9.57;8.20;;;;;;;7.49;55.44;94865.88;4993811;28;20578;-73
2022/12/28 02:06:35;;;;;;;10.65;8.80;;;;;;;7.59;54.35;94860.56;4993993;28;20022;-74
2022/12/28 02:09:15;;;;;;;17.42;8.75;;;;;;;7.54;54.86;94852.63;4994633;28;20049;-74
2022/12/28 02:11:40;;;;;;;11.20;8.60;;;;;;;7.53;53.87;94843.09;4988032;28;20058;-74
2022/12/28 02:14:07;;;;;;;12.60;9.30;;;;;;;7.43;54.57;94858.22;4992359;28;20196;-76
2022/12/28 02:16:32;;;;;;;9.80;8.13;;;;;;;7.35;54.07;94842.88;4994776;28;20037;-73
2022/12/28 02:18:57;;;;;;;12.05;8.50;;;;;;;7.12;54.38;94829.16;4991120;28;20335;-73
2022/12/28 02:21:33;;;;;;;11.60;8.63;;;;;;;7.29;54.18;94834.13;4995369;28;20050;-72
2022/12/28 02:24:52;;;;;;;10.20;7.88;;;;;;;7.44;53.52;94846.56;4990510;28;20042;-73
2022/12/28 02:27:31;;;;;;;11.52;8.80;;;;;;;7.31;52.97;94813.50;4987752;28;20500;-72
2022/12/28 02:30:07;;;;;;;10.25;8.40;;;;;;;7.28;53.36;94835.22;4993900;28;20041;-72
2022/12/28 02:33:02;;;;;;;11.18;8.82;;;;;;;7.32;53.30;94833.63;4993767;28;20133;-74
2022/12/28 02:35:42;;;;;;;13.52;8.85;;;;;;;7.35;52.30;94827.00;4991939;28;20042;-74
2022/12/28 02:38:17;;;;;;;11.90;9.20;;;;;;;7.01;52.48;94824.13;4991513;28;20037;-72
2022/12/28 02:40:58;;;;;;;11.80;9.05;;;;;;;6.75;53.22;94820.72;4992836;28;20489;-72
2022/12/28 02:43:24;;;;;;;14.23;9.20;;;;;;;6.63;53.58;94823.59;4990179;28;20590;-74
2022/12/28 02:51:46;;;;;;;9.83;7.93;;;;;;;6.57;53.30;94806.16;4972324;28;20037;-74
2022/12/28 02:57:54;;;;;;;19.65;8.85;;;;;;;6.80;52.77;94800.31;4994222;28;20052;-74
2022/12/28 03:00:23;;;;;;;12.20;7.57;;;;;;;6.84;52.84;94809.34;4991972;28;20053;-74
2022/12/28 03:03:08;;;;;;;9.68;8.45;;;;;;;6.95;52.31;94806.66;4992282;28;20095;-74
2022/12/28 03:09:14;;;;;;;9.23;7.88;;;;;;;7.05;51.39;94799.50;4990359;28;20118;-74
2022/12/28 03:11:53;;;;;;;10.20;7.18;;;;;;;7.08;51.32;94803.50;4987024;28;20507;-73
2022/12/28 03:14:37;;;;;;;10.05;7.80;;;;;;;6.97;51.63;94807.22;4985285;28;20587;-76
2022/12/28 03:31:07;;;;;;;10.98;8.57;;;;;;;7.22;51.14;94820.41;4991423;28;20033;-74
2022/12/28 03:33:44;;;;;;;12.57;9.20;;;;;;;7.30;51.00;94822.50;4991522;28;20208;-75
2022/12/28 03:36:24;;;;;;;10.93;8.30;;;;;;;7.35;51.17;94829.63;4986359;28;20051;-74
2022/12/28 03:39:08;;;;;;;12.10;9.45;;;;;;;7.27;51.67;94833.63;4990506;28;20495;-73
2022/12/28 03:41:37;;;;;;;10.35;8.20;;;;;;;7.32;51.30;94825.69;4992334;28;20595;-75
2022/12/28 03:44:09;;;;;;;11.52;8.60;;;;;;;7.33;51.56;94827.28;4991982;28;20038;-73
2022/12/28 03:46:46;;;;;;;12.27;9.18;;;;;;;7.40;51.41;94830.41;4991131;28;20103;-74
2022/12/28 03:49:12;;;;;;;12.95;8.50;;;;;;;7.32;51.29;94820.41;4986095;28;20119;-74
2022/12/28 03:51:39;;;;;;;10.50;8.10;;;;;;;7.53;51.04;94837.03;4990504;28;20021;-73
2022/12/28 03:54:05;;;;;;;9.85;8.30;;;;;;;7.52;50.78;94823.00;4992520;28;20509;-73
2022/12/28 03:56:30;;;;;;;15.18;11.32;;;;;;;7.68;50.68;94819.22;4993330;28;20471;-72
2022/12/28 03:58:56;;;;;;;22.83;14.82;;;;;;;7.60;51.02;94825.09;4990417;28;20034;-73
2022/12/28 04:01:22;;;;;;;26.08;14.85;;;;;;;7.58;50.86;94816.59;4992783;28;20038;-72
2022/12/28 04:03:48;;;;;;;22.55;15.63;;;;;;;7.80;50.00;94815.50;4991406;28;20571;-71
2022/12/28 04:06:15;;;;;;;13.02;8.88;;;;;;;7.55;49.81;94817.16;4994798;28;20118;-74
2022/12/28 04:08:42;;;;;;;9.10;7.38;;;;;;;7.47;50.03;94801.84;4987184;28;20084;-72
2022/12/28 04:11:08;;;;;;;22.55;14.50;;;;;;;7.48;50.03;94802.63;4991029;28;20101;-73
2022/12/28 04:13:33;;;;;;;21.00;12.38;;;;;;;7.53;49.94;94816.63;4987729;28;20037;-74
2022/12/28 04:16:06;;;;;;;13.07;9.40;;;;;;;7.66;49.69;94812.63;4991250;28;20467;-72
2022/12/28 04:18:32;;;;;;;10.55;7.25;;;;;;;7.49;50.24;94806.84;4990168;28;20171;-73
2022/12/28 04:20:58;;;;;;;9.43;7.38;;;;;;;7.62;50.04;94807.09;4989754;28;20026;-74
2022/12/28 04:23:23;;;;;;;11.73;8.60;;;;;;;7.64;49.73;94812.09;4990988;28;20045;-74
2022/12/28 04:26:00;;;;;;;16.35;9.77;;;;;;;7.64;49.90;94818.19;4990717;28;20030;-74
2022/12/28 04:28:26;;;;;;;10.40;7.80;;;;;;;7.48;50.04;94835.19;4991977;28;20052;-75
2022/12/28 04:30:52;;;;;;;12.15;6.70;;;;;;;7.33;50.23;94821.19;4988906;28;20072;-74
2022/12/28 04:33:17;;;;;;;9.27;7.78;;;;;;;7.50;49.79;94845.50;4991550;28;20173;-74
2022/12/28 04:35:43;;;;;;;6.82;6.07;;;;;;;7.46;49.73;94842.59;5005171;28;20544;-74
2022/12/28 04:38:08;;;;;;;9.32;5.97;;;;;;;7.53;49.74;94851.03;4989776;28;20037;-75
2022/12/28 04:40:33;;;;;;;8.02;6.53;;;;;;;7.38;50.17;94848.44;4989370;28;20041;-73
2022/12/28 04:42:59;;;;;;;10.40;7.55;;;;;;;7.38;49.90;94845.78;4989382;28;20105;-74
2022/12/28 04:45:24;;;;;;;13.48;9.10;;;;;;;7.24;50.12;94834.16;4991733;28;20508;-74
2022/12/28 04:47:49;;;;;;;8.45;6.32;;;;;;;7.05;50.14;94827.81;4989225;28;20366;-74
2022/12/28 04:50:15;;;;;;;8.82;6.03;;;;;;;7.08;50.45;94859.06;4991239;28;20034;-73
2022/12/28 04:52:40;;;;;;;9.48;6.82;;;;;;;7.15;50.26;94843.69;4987545;28;20623;-72
2022/12/28 04:55:06;;;;;;;7.72;5.70;;;;;;;7.11;50.12;94855.88;4991076;28;20037;-74
2022/12/28 04:57:31;;;;;;;8.20;5.72;;;;;;;6.83;50.26;94823.63;4989567;28;20035;-74
2022/12/28 04:59:57;;;;;;;6.85;4.82;;;;;;;6.91;50.55;94845.28;4989584;28;20290;-74
2022/12/28 05:02:22;;;;;;;6.55;5.43;;;;;;;6.92;50.89;94860.09;4988321;28;20546;-74
2022/12/28 05:04:47;;;;;;;5.68;4.95;;;;;;;6.97;51.19;94855.59;4990031;28;20054;-73
2022/12/28 05:07:13;;;;;;;5.93;5.32;;;;;;;7.11;50.65;94847.94;4990981;28;20045;-75
2022/12/28 05:09:38;;;;;;;6.68;5.03;;;;;;;7.20;50.97;94836.53;4990160;28;20030;-74
2022/12/28 05:12:04;;;;;;;10.20;7.72;;;;;;;7.14;51.46;94816.44;4989158;28;20600;-74
2022/12/28 05:14:29;;;;;;;13.65;9.77;;;;;;;7.29;50.91;94820.91;4988535;28;20050;-73
2022/12/28 05:16:54;;;;;;;6.13;5.47;;;;;;;7.24;50.00;94839.44;4991711;28;20508;-74
2022/12/28 05:19:20;;;;;;;8.10;5.68;;;;;;;7.33;50.02;94835.22;4988219;28;20030;-73
2022/12/28 05:21:45;;;;;;;7.60;5.25;;;;;;;7.37;49.76;94828.31;4992027;28;20029;-74
2022/12/28 05:24:11;;;;;;;8.73;6.20;;;;;;;7.50;49.67;94848.94;4990373;28;20444;-74
2022/12/28 05:26:36;;;;;;;9.52;6.53;;;;;;;7.33;49.52;94837.88;4984622;28;20373;-72
2022/12/28 05:29:02;;;;;;;12.38;6.55;;;;;;;7.38;49.41;94829.91;4987429;28;20038;-73
2022/12/28 05:31:27;;;;;;;19.75;12.77;;;;;;;7.58;49.32;94837.00;4987183;28;20041;-72
2022/12/28 05:33:53;;;;;;;28.25;16.90;;;;;;;7.65;49.88;94856.03;4987237;28;20026;-75
2022/12/28 05:36:21;;;;;;;37.42;19.35;;;;;;;7.72;50.04;94856.56;4994912;28;20034;-76
2022/12/28 05:38:47;;;;;;;12.85;9.00;;;;;;;7.55;49.14;94846.28;4997034;28;20555;-76
2022/12/28 05:41:15;;;;;;;12.65;8.25;;;;;;;7.46;49.08;94858.47;5000359;28;20089;-76
2022/12/28 05:43:41;;;;;;;10.00;6.95;;;;;;;7.52;49.00;94867.19;4997608;28;20117;-77
2022/12/28 05:46:10;;;;;;;7.85;6.05;;;;;;;7.48;48.54;94866.94;4998566;28;22784;-76
2022/12/28 05:48:37;;;;;;;8.40;6.40;;;;;;;7.38;48.16;94866.16;4998272;28;20029;-74
2022/12/28 05:51:08;;;;;;;10.02;7.45;;;;;;;7.32;48.42;94872.53;4994631;28;20991;-75
2022/12/28 05:53:34;;;;;;;9.75;7.60;;;;;;;7.23;48.59;94880.22;4995078;28;20045;-75
2022/12/28 05:56:05;;;;;;;9.05;7.13;;;;;;;7.22;48.78;94887.34;4996799;28;20045;-75
2022/12/28 05:58:31;;;;;;;11.00;8.13;;;;;;;7.22;48.50;94873.31;5010441;28;20524;-75
2022/12/28 06:01:07;;;;;;;8.93;7.00;;;;;;;7.15;48.51;94867.50;5000117;28;20037;-76
2022/12/28 06:03:32;;;;;;;10.48;7.90;;;;;;;7.19;48.65;94884.44;4999551;28;20209;-76
2022/12/28 06:06:03;;;;;;;9.32;7.40;;;;;;;7.12;49.04;94883.91;5000433;28;20140;-76
2022/12/28 06:08:28;;;;;;;10.27;6.25;;;;;;;7.08;47.91;94883.66;4999123;28;20034;-76
2022/12/28 06:10:53;;;;;;;10.38;6.10;;;;;;;6.88;47.85;94888.13;4999929;28;20325;-76
2022/12/28 06:13:19;;;;;;;10.90;6.20;;;;;;;7.07;47.58;94886.56;4998341;28;20038;-76
2022/12/28 06:15:44;;;;;;;6.47;5.50;;;;;;;7.15;47.00;94888.66;4998586;28;20085;-75
2022/12/28 06:18:09;;;;;;;11.75;5.97;;;;;;;6.83;47.77;94888.94;4998675;28;20493;-76
2022/12/28 06:20:35;;;;;;;7.68;5.18;;;;;;;6.81;48.14;94888.38;5000538;28;20095;-76
2022/12/28 06:23:00;;;;;;;7.38;5.75;;;;;;;6.83;47.83;94881.78;5000190;28;20069;-76
2022/12/28 06:25:26;;;;;;;12.27;7.40;;;;;;;6.81;47.78;94891.81;5000207;28;20035;-76
2022/12/28 06:27:52;;;;;;;12.77;8.25;;;;;;;6.71;48.32;94875.94;4998939;28;20053;-77
2022/12/28 06:30:17;;;;;;;10.45;7.53;;;;;;;6.82;48.14;94877.56;5000582;28;20107;-77
2022/12/28 06:32:43;;;;;;;8.30;7.18;;;;;;;6.86;48.63;94885.75;4997599;28;20046;-76
2022/12/28 06:35:08;;;;;;;14.23;7.80;;;;;;;7.02;48.82;94897.13;4995309;28;20038;-76
2022/12/28 06:37:33;;;;;;;8.52;6.88;;;;;;;6.95;48.55;94886.00;4996793;28;20273;-77
2022/12/28 06:39:59;;;;;;;8.38;5.50;;;;;;;7.12;48.02;94891.84;4996092;28;20026;-76
2022/12/28 06:42:24;;;;;;;9.80;7.38;;;;;;;7.32;47.82;94891.84;4994852;28;20033;-75
2022/12/28 06:44:49;;;;;;;10.85;8.07;;;;;;;7.28;48.13;94888.16;4993011;28;20041;-76
2022/12/28 06:47:15;;;;;;;10.85;8.32;;;;;;;7.32;48.75;94901.63;4993034;28;20153;-75
2022/12/28 06:49:40;;;;;;;8.80;6.25;;;;;;;7.05;49.00;94905.31;4994309;28;20038;-76
2022/12/28 06:52:05;;;;;;;9.90;6.63;;;;;;;7.08;48.55;94898.72;4994899;28;20033;-77
2022/12/28 06:54:31;;;;;;;8.45;6.63;;;;;;;7.16;48.67;94909.56;4994609;28;20029;-76
2022/12/28 06:56:56;;;;;;;10.27;7.78;;;;;;;7.17;48.63;94908.53;4994063;28;20447;-75
2022/12/28 06:59:21;;;;;;;10.82;7.63;;;;;;;7.11;48.61;94895.53;4994318;28;20030;-75
2022/12/28 07:01:47;;;;;;;12.77;8.98;;;;;;;7.20;48.80;94901.91;4992270;28;20509;-76
2022/12/28 07:04:12;;;;;;;11.80;8.48;;;;;;;7.29;48.45;94895.00;4994684;28;20531;-76
2022/12/28 07:06:40;;;;;;;13.95;9.95;;;;;;;7.17;48.88;94897.13;4992789;28;20066;-76
2022/12/28 07:09:08;;;;;;;14.15;8.85;;;;;;;7.25;49.54;94897.41;4993642;28;21399;-75
2022/12/28 07:11:34;;;;;;;13.25;9.65;;;;;;;7.30;49.07;94892.09;4991466;28;20509;-77
2022/12/28 07:14:00;;;;;;;12.23;9.57;;;;;;;7.50;48.42;94901.06;4994438;28;20567;-76
2022/12/28 07:16:27;;;;;;;12.57;9.75;;;;;;;7.33;48.97;94895.28;4991580;28;20784;-75
2022/12/28 07:18:53;;;;;;;11.55;8.73;;;;;;;7.30;48.71;94900.03;4995602;28;20414;-75
2022/12/28 07:21:23;;;;;;;17.92;13.07;;;;;;;7.23;49.39;94890.78;4996461;28;20439;-76
2022/12/28 07:23:50;;;;;;;21.73;12.25;;;;;;;7.30;49.32;94902.69;4994037;28;20042;-75
2022/12/28 07:26:19;;;;;;;13.05;10.50;;;;;;;7.24;49.45;94890.50;4995009;28;20034;-76
2022/12/28 07:28:46;;;;;;;21.42;15.48;;;;;;;7.25;49.23;94876.22;4989900;28;20054;-75
2022/12/28 07:31:15;;;;;;;21.33;10.55;;;;;;;7.23;49.40;94896.09;4993431;28;20504;-76
2022/12/28 07:33:41;;;;;;;27.88;14.65;;;;;;;7.29;49.03;94890.50;4991523;28;20569;-76
2022/12/28 07:36:10;;;;;;;60.05;23.92;;;;;;;7.27;49.75;94916.47;4981463;28;20458;-76
2022/12/28 07:38:36;;;;;;;36.05;16.88;;;;;;;7.29;49.62;94905.59;4979256;28;21596;-76
2022/12/28 07:41:03;;;;;;;16.90;10.50;;;;;;;7.28;49.77;94907.47;4978583;28;20039;-76
2022/12/28 07:43:29;;;;;;;11.45;9.23;;;;;;;7.39;49.30;94910.88;4983471;28;20038;-75
2022/12/28 07:46:11;;;;;;;9.65;7.93;;;;;;;7.27;49.24;94918.31;4983977;28;20373;-76
2022/12/28 07:48:37;;;;;;;12.13;9.18;;;;;;;6.93;50.24;94910.09;4993956;28;20139;-76
2022/12/28 07:51:14;;;;;;;13.65;8.43;;;;;;;7.04;50.06;94914.34;4995229;28;20077;-76
2022/12/28 07:53:42;;;;;;;12.07;9.77;;;;;;;7.28;49.78;94927.84;4996981;28;20038;-76
2022/12/28 07:56:08;;;;;;;11.80;8.40;;;;;;;7.16;49.20;94927.28;4987631;28;20069;-76
2022/12/28 07:58:33;;;;;;;18.33;11.82;;;;;;;7.29;49.18;94926.75;4991968;28;20034;-76
2022/12/28 08:01:11;;;;;;;13.60;9.02;;;;;;;6.97;49.54;94924.38;4993606;28;20072;-77
2022/12/28 08:03:38;;;;;;;14.32;8.30;;;;;;;7.34;48.91;94924.09;4989920;28;20034;-77
2022/12/28 08:06:08;;;;;;;13.15;9.52;;;;;;;7.32;49.35;94926.25;4993464;28;20181;-77
2022/12/28 08:08:38;;;;;;;18.17;14.35;;;;;;;7.48;48.67;94924.41;4986099;28;20385;-77
2022/12/28 08:11:06;;;;;;;11.88;8.90;;;;;;;7.39;48.31;94888.91;4981559;28;20943;-75
2022/12/28 08:13:34;;;;;;;11.82;9.02;;;;;;;7.52;48.25;94915.66;4972511;28;20053;-75
2022/12/28 08:16:00;;;;;;;11.57;8.07;;;;;;;7.52;48.06;94918.28;4987470;28;20056;-75
2022/12/28 08:18:26;;;;;;;14.73;10.13;;;;;;;7.36;48.43;94906.13;4987286;28;20564;-74
2022/12/28 08:20:51;;;;;;;14.75;11.10;;;;;;;7.62;48.20;94912.19;4990528;28;20563;-74
2022/12/28 08:23:17;;;;;;;10.68;8.77;;;;;;;7.57;48.12;94912.19;4990796;28;20591;-77
2022/12/28 08:25:42;;;;;;;19.20;12.48;;;;;;;7.59;48.07;94910.84;4993853;28;20117;-75
2022/12/28 08:28:08;;;;;;;22.60;16.27;;;;;;;7.76;47.87;94925.69;4991065;28;20328;-75
2022/12/28 08:30:34;;;;;;;21.58;15.25;;;;;;;7.59;48.19;94921.44;4993539;28;20054;-74
2022/12/28 08:32:59;;;;;;;13.43;11.27;;;;;;;7.49;48.49;94926.75;4992279;28;20361;-74
2022/12/28 08:35:25;;;;;;;12.18;9.93;;;;;;;7.37;48.83;94914.88;4991732;28;20050;-74
2022/12/28 08:37:53;;;;;;;19.17;13.80;;;;;;;7.36;48.92;94931.78;4991364;28;20046;-77
2022/12/28 08:40:19;;;;;;;17.27;11.30;;;;;;;7.37;48.56;94931.53;4992451;28;20084;-75
2022/12/28 08:42:44;;;;;;;15.77;11.02;;;;;;;7.24;49.01;94921.47;4989930;28;20598;-76
2022/12/28 08:45:10;;;;;;;24.75;13.25;;;;;;;7.20;48.92;94923.06;4989124;28;20057;-74
2022/12/28 08:47:35;;;;;;;21.27;13.48;;;;;;;7.26;48.84;94932.59;4986715;28;20485;-75
2022/12/28 08:50:00;;;;;;;35.60;20.77;;;;;;;7.40;48.78;94933.66;4987065;28;20077;-76
2022/12/28 08:52:26;;;;;;;33.53;18.75;;;;;;;7.15;48.75;94920.41;4991330;28;20038;-76
2022/12/28 08:54:52;;;;;;;27.80;16.90;;;;;;;7.30;48.60;94917.78;4990218;28;20034;-76
2022/12/28 08:57:17;;;;;;;22.38;15.55;;;;;;;7.41;48.18;94919.34;4993170;28;20068;-77
2022/12/28 08:59:43;;;;;;;22.60;15.18;;;;;;;7.52;47.84;94920.94;4990178;28;20046;-76
2022/12/28 09:02:12;;;;;;;15.13;11.10;;;;;;;7.25;48.24;94896.59;4994149;28;20113;-77
2022/12/28 09:04:37;;;;;;;13.93;9.05;;;;;;;7.57;47.33;94913.00;4993151;28;20034;-73
2022/12/28 09:07:03;;;;;;;13.10;9.85;;;;;;;7.46;47.44;94890.25;5005635;28;20048;-76
2022/12/28 09:09:28;;;;;;;16.05;10.43;;;;;;;7.30;48.27;94896.59;4991683;28;20444;-74
2022/12/28 09:11:54;;;;;;;13.77;10.02;;;;;;;7.09;48.88;94887.09;4996025;28;20034;-77
2022/12/28 09:14:19;;;;;;;13.88;10.40;;;;;;;7.34;48.34;94902.19;4990330;28;20038;-77
2022/12/28 09:16:44;;;;;;;12.88;9.10;;;;;;;7.41;48.49;94900.03;4999627;28;20066;-76
2022/12/28 09:19:13;;;;;;;16.50;10.70;;;;;;;7.47;48.15;94896.31;4993610;28;20038;-74
2022/12/28 09:21:40;;;;;;;15.43;8.88;;;;;;;7.29;48.50;94897.66;4986816;28;20491;-74
2022/12/28 09:24:06;;;;;;;10.85;8.80;;;;;;;7.12;48.94;94887.34;4992343;28;20566;-74
2022/12/28 09:26:35;;;;;;;11.95;9.48;;;;;;;7.35;48.57;94888.66;5009690;28;20037;-75
2022/12/28 09:29:04;;;;;;;16.25;10.10;;;;;;;7.24;48.72;94881.78;4989390;28;20069;-75
2022/12/28 09:31:31;;;;;;;14.77;10.35;;;;;;;7.32;48.94;94883.91;4986955;28;20068;-75
2022/12/28 09:34:03;;;;;;;18.73;14.10;;;;;;;7.33;48.35;94887.34;4986201;28;20036;-73
2022/12/28 09:36:34;;;;;;;13.30;9.85;;;;;;;7.30;48.77;94880.72;4992969;28;20079;-75
2022/12/28 09:39:05;;;;;;;20.23;12.75;;;;;;;7.22;48.66;94873.31;4997204;28;20524;-79
2022/12/28 09:41:57;;;;;;;34.40;17.52;;;;;;;7.34;48.00;94875.72;4997574;28;20030;-76
2022/12/28 09:44:44;;;;;;;19.73;12.98;;;;;;;7.42;48.19;94873.31;5001416;28;20073;-77
2022/12/28 09:47:16;;;;;;;14.75;9.90;;;;;;;7.53;47.77;94874.84;4999340;28;20328;-76
2022/12/28 09:50:03;;;;;;;13.73;9.65;;;;;;;7.16;48.31;94861.94;4998969;28;20669;-77
2022/12/28 09:52:37;;;;;;;18.55;9.65;;;;;;;6.95;48.19;94860.34;5000511;28;20064;-77
2022/12/28 09:55:22;;;;;;;11.38;8.70;;;;;;;7.04;48.23;94844.78;5000993;28;20022;-77
2022/12/28 09:57:52;;;;;;;12.20;8.30;;;;;;;7.18;48.23;94859.03;4997310;28;20823;-76
2022/12/28 10:00:21;;;;;;;11.23;8.95;;;;;;;7.45;47.69;94856.88;5000894;28;20026;-76
2022/12/28 10:02:53;;;;;;;12.07;9.43;;;;;;;7.41;47.98;94855.84;4999204;28;20041;-75
2022/12/28 10:05:20;;;;;;;18.83;9.48;;;;;;;6.84;49.38;94827.06;4999544;28;20034;-76
2022/12/28 10:07:45;;;;;;;17.58;12.48;;;;;;;7.05;49.01;94846.34;4996091;28;20112;-75
2022/12/28 10:10:19;;;;;;;13.25;9.73;;;;;;;6.75;49.83;94837.34;4977308;28;20054;-76
2022/12/28 10:12:45;;;;;;;11.27;8.40;;;;;;;6.11;51.33;94836.97;4987069;28;20042;-76
2022/12/28 10:15:13;;;;;;;15.52;9.98;;;;;;;6.37;51.06;94840.47;4985693;28;20631;-76
2022/12/28 10:17:39;;;;;;;17.67;10.57;;;;;;;6.76;49.43;94830.22;4988849;28;20046;-76
2022/12/28 10:20:06;;;;;;;20.35;12.00;;;;;;;6.91;48.83;94829.41;5003119;28;20546;-76
2022/12/28 10:22:41;;;;;;;18.55;12.02;;;;;;;6.99;48.84;94831.53;4993392;28;20145;-76
2022/12/28 10:25:16;;;;;;;15.70;10.17;;;;;;;7.00;49.39;94838.41;4992144;28;20033;-77
2022/12/28 10:27:42;;;;;;;15.30;10.30;;;;;;;7.12;48.99;94833.66;4991913;28;20282;-76
2022/12/28 10:30:17;;;;;;;13.48;8.80;;;;;;;7.42;48.57;94830.97;4983273;28;20034;-76
2022/12/28 10:32:52;;;;;;;13.45;8.85;;;;;;;7.48;48.00;94814.00;4991749;28;20041;-76
2022/12/28 10:35:26;;;;;;;16.73;10.23;;;;;;;6.64;50.00;94830.47;4993116;28;20149;-76
2022/12/28 10:37:58;;;;;;;14.57;9.85;;;;;;;6.61;49.93;94820.41;4995567;28;20038;-76
2022/12/28 10:40:31;;;;;;;17.77;10.93;;;;;;;7.11;49.37;94818.81;4994993;28;20034;-75
2022/12/28 10:42:58;;;;;;;15.68;10.40;;;;;;;6.95;49.32;94811.94;4993004;28;20034;-75
2022/12/28 10:45:40;;;;;;;12.68;9.90;;;;;;;6.79;49.14;94809.34;4998681;28;20018;-75
2022/12/28 10:48:18;;;;;;;12.05;9.27;;;;;;;7.20;48.83;94811.94;4988061;28;20068;-76
2022/12/28 10:50:49;;;;;;;17.50;10.15;;;;;;;6.46;50.77;94807.19;5009711;28;20099;-77
2022/12/28 10:53:16;;;;;;;14.68;10.13;;;;;;;6.47;51.11;94808.78;4998759;28;20081;-76
2022/12/28 10:55:42;;;;;;;14.18;10.38;;;;;;;6.86;50.67;94812.50;4993297;28;20089;-76
2022/12/28 10:58:22;;;;;;;26.38;17.15;;;;;;;6.93;50.01;94803.50;4994088;28;20439;-75
2022/12/28 11:01:27;;;;;;;15.55;10.98;;;;;;;7.19;49.45;94820.94;4991744;28;20029;-77
2022/12/28 11:03:55;;;;;;;20.03;11.47;;;;;;;7.39;49.31;94826.19;4993369;28;20509;-76
2022/12/28 11:06:32;;;;;;;15.40;11.23;;;;;;;7.50;48.54;94811.06;4991833;28;20066;-75
2022/12/28 11:09:13;;;;;;;15.57;10.93;;;;;;;7.45;48.53;94826.97;4985979;28;21038;-74
2022/12/28 11:11:40;;;;;;;24.27;15.57;;;;;;;7.32;49.13;94830.97;5006061;28;20049;-76
2022/12/28 11:14:13;;;;;;;17.33;12.32;;;;;;;7.45;48.41;94824.31;4992377;28;20467;-77
2022/12/28 11:16:40;;;;;;;16.45;11.30;;;;;;;7.49;48.27;94815.56;4993732;28;20046;-76
2022/12/28 11:19:05;;;;;;;15.00;10.77;;;;;;;7.69;47.76;94826.09;4993311;28;20491;-77
2022/12/28 11:21:32;;;;;;;17.73;11.20;;;;;;;7.88;47.24;94828.19;4989610;28;20044;-75
2022/12/28 11:23:58;;;;;;;15.38;11.60;;;;;;;7.75;47.53;94826.91;4990277;28;20030;-74
2022/12/28 11:26:26;;;;;;;15.57;11.52;;;;;;;7.69;47.91;94830.59;4988609;28;20037;-74
2022/12/28 11:28:53;;;;;;;16.98;13.10;;;;;;;7.81;47.45;94827.69;4992378;28;20038;-75
2022/12/28 11:31:34;;;;;;;18.35;12.13;;;;;;;7.69;47.52;94831.41;4983928;28;20030;-74
2022/12/28 11:34:05;;;;;;;20.50;12.32;;;;;;;7.58;47.88;94829.84;4989669;28;20434;-74
2022/12/28 11:36:37;;;;;;;19.30;12.63;;;;;;;7.52;48.25;94841.53;4987610;28;20490;-75
2022/12/28 11:39:24;;;;;;;17.27;11.95;;;;;;;7.60;47.91;94833.03;4986692;28;20042;-74
2022/12/28 11:41:51;;;;;;;17.25;12.27;;;;;;;7.85;47.43;94828.72;4987115;28;20038;-74
2022/12/28 11:44:40;;;;;;;19.17;13.07;;;;;;;8.08;47.37;94830.75;4987474;28;20750;-74
2022/12/28 11:47:14;;;;;;;17.63;13.30;;;;;;;8.12;47.34;94826.47;4980854;28;20042;-73
2022/12/28 11:49:40;;;;;;;19.83;15.45;;;;;;;8.11;47.56;94828.38;4989515;28;20042;-76
2022/12/28 11:52:19;;;;;;;24.23;15.68;;;;;;;8.08;48.04;94825.44;5003756;28;20018;-77
2022/12/28 11:55:25;;;;;;;21.38;16.08;;;;;;;7.80;48.29;94804.91;4986769;28;20091;-77
2022/12/28 11:57:53;;;;;;;21.08;17.23;;;;;;;8.12;48.51;94823.84;4985917;28;20049;-73
2022/12/28 12:00:18;;;;;;;22.63;16.77;;;;;;;7.99;48.74;94819.94;4993889;28;20038;-76
2022/12/28 12:02:46;;;;;;;23.48;15.82;;;;;;;8.08;49.15;94812.19;4993722;28;20104;-76
2022/12/28 12:05:36;;;;;;;23.88;15.65;;;;;;;8.21;49.93;94811.63;4992472;28;20041;-77
2022/12/28 12:08:11;;;;;;;20.63;14.95;;;;;;;7.99;49.67;94809.34;4994481;28;20034;-76
2022/12/28 12:10:38;;;;;;;17.92;14.18;;;;;;;7.58;50.28;94805.25;4992996;28;20034;-76